logo
Search for airport 
image banner adimage banner adimage banner ad
image banner ad

CBB4 - Beddis Beach

Located in , Canada

ICAO - , IATA -

Data provided by Airmate  

General information

Coordinates: N48°48'0" W123°25'25"
Elevation is 717 feet MSL.
Magnetic variation is 16.9028° East
View others Airports in British Columbia

Operational data

Special qualification required
Current time UTC:
Current local time:
Weather at : CYYJ - Victoria Intl ( 17 km )
METAR: CYYJ 141700Z 13008KT 30SM SKC 20/13 A3002 RMK SLP169 DENSITY ALT 500FT
TAF: TAF CYYJ 141140Z 1412/1512 VRB03KT P6SM SKC BECMG 1414/1416 12008KT BECMG 1502/1504 VRB03KT RMK NXT FCST BY 141800Z
View NOTAMs / SUP AIP / TFR affecting this airport [VIEW]
Communications frequencies: [VIEW]

Runways:

Airport contact information

Address: Canada

Satellite view of CBB4